Decoded Metar for ETIH (HOHENFELS in GERMANY) (IATA:N/A) | Meteo·Mobile Aviation Weather
aviador You're here:

ETIH Decoded Metar

HOHENFELS in GERMANY
Report Time2020-02-22 20:56:00
UTC Time2020-02-22 21:26:00
Flight Rules vfr VFR
Wind260° at 07 Gusting to 21 kt
W.Decomp.*RWY 27: 6.9 kt HW 1.3 kt LCW
Visibility9999 m
Phenomena:Light Rain
Clouds:Broken 039 Hf
Overcast 049 Hf
Expected CloudBase > 4,000 ft AGL from Temp-Dew spread
Ceiling3,900 ft
Temp10°C (ISA -2)
Dew Point00°C (50% RH)
AAT5.5°C
QNH1024 hPa
Density Alt915 ft
Elevation1,450 ft
Report Wrong Elevation
Raw Report
METAR ETIH 222056Z AUTO 26007G21KT 9999 -RA BKN039 OVC049 10/00 A3025
RMK AO2 PK WND 29031/03 RAB29 SLP254 P0000 60000 T01001002
52013=

Extra information for ETIH:More info

Metar Taf Metar & Taf Last 4 Metars F.Rules Stats Wind Profile Meteogram Temp Stats Airport Information Weather charts Add Link Nearby VenuesMetar ALERT Operation Metar Decoded Social comments